Time;durP1;ratioP1;P1;durP2;ratioP2;P2;SDS_P1;SDS_P2;PMS_P1;PMS_P2;Temp;Humidity;BMP_temperature;BMP_pressure;BME280_temperature;BME280_humidity;BME280_pressure;Samples;Min_cycle;Max_cycle;Signal;HPM_P1;HPM_P2
2022/09/04 00:02:36;;;;;;;13.68;6.25;;;18.70;99.90;;;;;;5072528;28;20192;-56
2022/09/04 00:05:22;;;;;;;12.13;5.70;;;18.70;99.90;;;;;;5072430;28;20172;-55
2022/09/04 00:07:55;;;;;;;14.68;6.60;;;18.70;99.90;;;;;;5072483;28;20183;-56
2022/09/04 00:10:35;;;;;;;15.32;6.40;;;18.70;99.90;;;;;;5072419;28;20254;-56
2022/09/04 00:13:13;;;;;;;19.80;6.25;;;18.80;99.90;;;;;;5072203;28;20219;-55
2022/09/04 00:15:47;;;;;;;15.52;6.30;;;18.70;99.90;;;;;;5072259;28;20307;-55
2022/09/04 00:18:19;;;;;;;12.63;6.00;;;18.70;99.90;;;;;;5072615;28;20184;-56
2022/09/04 00:20:44;;;;;;;12.77;6.57;;;18.70;99.90;;;;;;5072123;28;20172;-57
2022/09/04 00:23:34;;;;;;;13.02;6.43;;;18.70;99.90;;;;;;5072090;28;20187;-55
2022/09/04 00:26:14;;;;;;;15.00;6.65;;;18.80;99.90;;;;;;5072048;28;20180;-57
2022/09/04 00:28:55;;;;;;;18.95;6.13;;;18.70;99.90;;;;;;5071990;28;20233;-56
2022/09/04 00:31:28;;;;;;;15.18;6.95;;;18.80;99.90;;;;;;5071918;28;20267;-56
2022/09/04 00:34:10;;;;;;;15.32;5.78;;;18.80;99.90;;;;;;5071756;28;20251;-56
2022/09/04 00:36:41;;;;;;;14.32;6.55;;;18.80;99.90;;;;;;5071757;28;20251;-56
2022/09/04 00:39:30;;;;;;;13.50;6.00;;;18.80;99.90;;;;;;5071768;28;20263;-55
2022/09/04 00:42:11;;;;;;;11.52;5.90;;;18.80;99.90;;;;;;5060727;28;20254;-56
2022/09/04 00:45:03;;;;;;;10.07;5.72;;;18.80;99.90;;;;;;5071732;28;20165;-56
2022/09/04 00:47:50;;;;;;;10.93;5.28;;;18.80;99.90;;;;;;5071694;28;20180;-57
2022/09/04 00:50:43;;;;;;;12.02;5.57;;;18.80;99.90;;;;;;5071403;28;20176;-55
2022/09/04 00:53:27;;;;;;;10.45;5.00;;;18.80;99.90;;;;;;5071478;28;20307;-57
2022/09/04 00:55:55;;;;;;;11.30;5.60;;;18.80;99.90;;;;;;5071518;28;20172;-57
2022/09/04 00:59:06;;;;;;;11.85;5.05;;;18.90;99.90;;;;;;5071461;28;20255;-56
2022/09/04 01:01:31;;;;;;;9.77;4.60;;;18.90;99.90;;;;;;5064538;28;20707;-56
2022/09/04 01:04:26;;;;;;;11.52;5.38;;;18.90;99.90;;;;;;5071330;28;20359;-56
2022/09/04 01:06:58;;;;;;;11.23;5.25;;;18.90;99.90;;;;;;5070791;28;20188;-56
2022/09/04 01:09:47;;;;;;;14.43;4.80;;;18.90;99.90;;;;;;5071269;28;20177;-56
2022/09/04 01:12:35;;;;;;;19.58;5.10;;;18.90;99.90;;;;;;5069887;28;20702;-57
2022/09/04 01:15:13;;;;;;;13.30;5.20;;;18.90;99.90;;;;;;5071177;28;20172;-56
2022/09/04 01:17:41;;;;;;;8.43;5.20;;;18.90;99.90;;;;;;5071222;28;20172;-56
2022/09/04 01:20:30;;;;;;;15.23;4.47;;;18.90;99.90;;;;;;5071489;28;20187;-56
2022/09/04 01:23:22;;;;;;;11.10;4.22;;;18.90;99.90;;;;;;5071134;28;20199;-56
2022/09/04 01:26:00;;;;;;;9.93;4.22;;;18.90;99.90;;;;;;5071135;28;20204;-56
2022/09/04 01:28:32;;;;;;;11.98;4.38;;;18.90;99.90;;;;;;5071034;28;20639;-55
2022/09/04 01:31:19;;;;;;;14.55;4.32;;;18.90;99.90;;;;;;5070688;28;20215;-57
2022/09/04 01:33:54;;;;;;;8.55;3.47;;;19.00;99.90;;;;;;5071076;28;20219;-56
2022/09/04 01:36:44;;;;;;;9.00;3.47;;;19.00;99.90;;;;;;5070952;28;20172;-57
2022/09/04 01:39:10;;;;;;;10.45;3.55;;;19.00;99.90;;;;;;5071047;28;20177;-56
2022/09/04 01:41:44;;;;;;;10.70;3.78;;;19.00;99.90;;;;;;5070710;28;20713;-57
2022/09/04 01:44:11;;;;;;;13.43;3.53;;;19.00;99.90;;;;;;5070961;28;20168;-56
2022/09/04 01:46:57;;;;;;;13.93;3.42;;;19.00;99.90;;;;;;5070769;28;20184;-56
2022/09/04 01:49:37;;;;;;;10.15;3.15;;;19.00;99.90;;;;;;5070759;28;20205;-56
2022/09/04 01:52:21;;;;;;;7.50;3.30;;;19.00;99.90;;;;;;5070684;28;20168;-56
2022/09/04 01:55:06;;;;;;;7.93;3.22;;;18.90;99.90;;;;;;5070775;28;20647;-56
2022/09/04 01:57:53;;;;;;;10.20;3.30;;;19.00;99.90;;;;;;5070859;28;20168;-56
2022/09/04 02:00:22;;;;;;;8.82;3.05;;;19.00;99.90;;;;;;5070731;28;20196;-56
2022/09/04 02:02:56;;;;;;;12.77;3.03;;;19.00;99.90;;;;;;5070596;28;20690;-56
2022/09/04 02:05:28;;;;;;;13.93;3.80;;;19.00;99.90;;;;;;5070565;28;20172;-56
2022/09/04 02:08:01;;;;;;;9.05;2.58;;;19.00;99.90;;;;;;5070841;28;20176;-56
2022/09/04 02:10:56;;;;;;;6.97;2.80;;;19.00;99.90;;;;;;5070615;28;20173;-56
2022/09/04 02:13:28;;;;;;;7.72;2.55;;;19.00;99.90;;;;;;5070096;28;20255;-56
2022/09/04 02:16:25;;;;;;;8.77;2.47;;;18.90;99.90;;;;;;5070361;28;20169;-56
2022/09/04 02:19:25;;;;;;;8.82;2.67;;;18.90;99.90;;;;;;5069986;28;20183;-56
2022/09/04 02:22:05;;;;;;;10.95;2.53;;;18.90;99.90;;;;;;5070428;28;20286;-56
2022/09/04 02:24:39;;;;;;;10.82;2.78;;;18.90;99.90;;;;;;5070543;28;20198;-56
2022/09/04 02:27:07;;;;;;;13.80;2.33;;;18.90;99.90;;;;;;5070560;28;20294;-57
2022/09/04 02:29:42;;;;;;;8.57;2.60;;;18.90;99.90;;;;;;5070544;28;20181;-57
2022/09/04 02:32:53;;;;;;;11.70;2.40;;;18.90;99.90;;;;;;5070328;28;20186;-56
2022/09/04 02:35:25;;;;;;;7.70;2.65;;;18.90;99.90;;;;;;5015717;28;20272;-56
2022/09/04 02:38:00;;;;;;;8.68;2.13;;;18.90;99.90;;;;;;5070421;28;20726;-55
2022/09/04 02:40:51;;;;;;;8.55;2.22;;;19.00;99.90;;;;;;5070003;28;20222;-56
2022/09/04 02:43:34;;;;;;;16.58;2.90;;;19.00;99.90;;;;;;5073314;28;20171;-55
2022/09/04 02:46:15;;;;;;;9.30;2.50;;;19.00;99.90;;;;;;5074072;28;20168;-55
2022/09/04 02:48:56;;;;;;;7.75;2.40;;;18.90;99.90;;;;;;5073965;28;20171;-55
2022/09/04 02:51:40;;;;;;;14.98;2.72;;;18.90;99.90;;;;;;5073819;28;20178;-55
2022/09/04 02:54:41;;;;;;;9.25;2.20;;;18.90;99.90;;;;;;5073815;28;20250;-56
2022/09/04 02:58:00;;;;;;;13.27;1.92;;;18.90;99.90;;;;;;5073858;28;20605;-55
2022/09/04 03:01:02;;;;;;;8.45;2.47;;;18.90;99.90;;;;;;5011632;28;20178;-55
2022/09/04 03:03:52;;;;;;;7.55;2.40;;;19.00;99.90;;;;;;5072498;28;20215;-56
2022/09/04 03:06:22;;;;;;;12.50;2.40;;;18.90;99.90;;;;;;5073718;28;20180;-55
2022/09/04 03:08:58;;;;;;;13.07;2.42;;;18.90;99.90;;;;;;5073626;28;20346;-56
2022/09/04 03:11:37;;;;;;;11.65;2.03;;;19.00;99.90;;;;;;5073528;28;20663;-55
2022/09/04 03:14:18;;;;;;;10.55;2.15;;;18.90;99.90;;;;;;5073350;28;20306;-55
2022/09/04 03:17:05;;;;;;;10.38;2.67;;;19.00;99.90;;;;;;5073680;28;20608;-56
2022/09/04 03:19:50;;;;;;;10.52;2.20;;;19.00;99.90;;;;;;5073400;28;20179;-55
2022/09/04 03:22:40;;;;;;;7.97;2.17;;;19.00;99.90;;;;;;5073425;28;20255;-56
2022/09/04 03:25:43;;;;;;;12.68;2.65;;;19.00;99.90;;;;;;5073463;28;20173;-55
2022/09/04 03:28:20;;;;;;;11.68;2.25;;;19.00;99.90;;;;;;5073340;28;20172;-55
2022/09/04 03:30:48;;;;;;;10.73;2.10;;;19.00;99.90;;;;;;5073275;28;20180;-55
2022/09/04 03:33:16;;;;;;;8.63;2.15;;;19.00;99.90;;;;;;5073243;28;20231;-55
2022/09/04 03:36:09;;;;;;;7.20;2.20;;;19.00;99.90;;;;;;5073342;28;20168;-57
2022/09/04 03:39:03;;;;;;;8.30;2.28;;;19.00;99.90;;;;;;5073114;28;20182;-56
2022/09/04 03:41:41;;;;;;;11.90;2.25;;;19.00;99.90;;;;;;5072901;28;20228;-56
2022/09/04 03:44:38;;;;;;;10.20;2.20;;;19.00;99.90;;;;;;5073129;28;20184;-56
2022/09/04 03:47:26;;;;;;;11.68;2.45;;;18.90;99.90;;;;;;5072972;28;20179;-56
2022/09/04 03:50:06;;;;;;;8.48;2.40;;;18.90;99.90;;;;;;5072881;28;20271;-56
2022/09/04 03:52:58;;;;;;;9.32;2.10;;;18.90;99.90;;;;;;5072707;28;20203;-55
2022/09/04 03:55:30;;;;;;;19.02;2.50;;;18.90;99.90;;;;;;5072225;28;20180;-56
2022/09/04 03:58:14;;;;;;;14.98;2.25;;;18.90;99.90;;;;;;5072575;28;20165;-56
2022/09/04 04:00:55;;;;;;;10.50;2.42;;;18.90;99.90;;;;;;5072789;28;20176;-54
2022/09/04 04:03:48;;;;;;;9.43;2.13;;;18.90;99.90;;;;;;5072602;28;20551;-55
2022/09/04 04:06:22;;;;;;;11.40;2.20;;;18.90;99.90;;;;;;5072547;28;20171;-55
2022/09/04 04:08:52;;;;;;;8.38;2.38;;;18.90;99.90;;;;;;5072490;28;20164;-56
2022/09/04 04:11:53;;;;;;;12.93;2.50;;;18.80;99.90;;;;;;5072786;28;20169;-56
2022/09/04 04:14:29;;;;;;;16.23;2.53;;;18.90;99.90;;;;;;5072536;28;20184;-56
2022/09/04 04:17:46;;;;;;;13.00;2.72;;;18.90;99.90;;;;;;5072393;28;20697;-56
2022/09/04 04:20:12;;;;;;;15.02;2.55;;;18.80;99.90;;;;;;5010324;28;20193;-56
2022/09/04 04:23:16;;;;;;;17.23;2.92;;;18.90;99.90;;;;;;5010389;28;20179;-56
2022/09/04 04:26:12;;;;;;;12.48;2.55;;;18.90;99.90;;;;;;5060646;28;20180;-55
2022/09/04 04:29:00;;;;;;;13.68;2.70;;;18.90;99.90;;;;;;5072223;28;20251;-55
2022/09/04 04:32:09;;;;;;;13.68;3.15;;;18.80;99.90;;;;;;5072004;28;20165;-56
2022/09/04 04:34:48;;;;;;;12.52;2.70;;;18.80;99.90;;;;;;5071823;28;20188;-57
2022/09/04 04:37:49;;;;;;;7.90;2.42;;;18.90;99.90;;;;;;5071887;28;20255;-57
2022/09/04 04:40:48;;;;;;;12.88;2.28;;;18.80;99.90;;;;;;5071819;28;20216;-56
2022/09/04 04:43:28;;;;;;;16.75;2.70;;;18.80;99.90;;;;;;5071853;28;20273;-55
2022/09/04 04:46:02;;;;;;;18.80;2.83;;;18.80;99.90;;;;;;5071644;28;20164;-56
2022/09/04 04:48:56;;;;;;;14.10;2.95;;;18.80;99.90;;;;;;5071690;28;20172;-55
2022/09/04 04:51:39;;;;;;;22.75;3.40;;;18.80;99.90;;;;;;5071682;28;20168;-56
2022/09/04 04:54:40;;;;;;;13.13;2.85;;;18.80;99.90;;;;;;5071511;28;20220;-55
2022/09/04 04:57:25;;;;;;;11.52;2.15;;;18.80;99.90;;;;;;5071571;28;20701;-55
2022/09/04 05:00:18;;;;;;;15.40;2.70;;;18.90;99.90;;;;;;5071619;28;20250;-56
2022/09/04 05:03:02;;;;;;;11.63;2.88;;;18.90;99.90;;;;;;5071362;28;20231;-55
2022/09/04 05:05:54;;;;;;;23.02;2.50;;;18.80;99.90;;;;;;5070511;28;20161;-55
2022/09/04 05:08:53;;;;;;;12.73;2.70;;;18.80;99.90;;;;;;5071280;28;20176;-55
2022/09/04 05:11:51;;;;;;;18.33;3.15;;;18.80;99.90;;;;;;5071303;28;20177;-56
2022/09/04 05:14:23;;;;;;;17.05;3.03;;;18.90;99.90;;;;;;5071161;28;20702;-56
2022/09/04 05:16:56;;;;;;;19.35;3.00;;;18.90;99.90;;;;;;5071238;28;20597;-57
2022/09/04 05:19:38;;;;;;;14.75;2.85;;;18.90;99.90;;;;;;5071203;28;20173;-57
2022/09/04 05:22:17;;;;;;;11.93;2.92;;;18.90;99.90;;;;;;5071221;28;20179;-56
2022/09/04 05:24:46;;;;;;;20.00;3.15;;;18.90;99.90;;;;;;5071090;28;20179;-56
2022/09/04 05:27:38;;;;;;;22.33;3.33;;;18.90;99.90;;;;;;5071524;28;20200;-57
2022/09/04 05:30:22;;;;;;;11.15;2.20;;;18.80;99.90;;;;;;5071222;28;20195;-56
2022/09/04 05:33:34;;;;;;;15.05;2.80;;;18.80;99.90;;;;;;5071042;28;20663;-56
2022/09/04 05:36:35;;;;;;;12.35;2.78;;;18.80;99.90;;;;;;5009176;28;20178;-57
2022/09/04 05:39:41;;;;;;;23.70;3.72;;;18.90;99.90;;;;;;5048879;28;20204;-59
2022/09/04 05:42:32;;;;;;;16.88;3.03;;;18.90;99.90;;;;;;5070970;28;20288;-57
2022/09/04 05:45:11;;;;;;;18.08;3.28;;;18.90;99.90;;;;;;5070846;28;20173;-56
2022/09/04 05:48:00;;;;;;;17.95;3.08;;;18.90;99.90;;;;;;5070845;28;20171;-56
2022/09/04 05:50:31;;;;;;;19.27;3.30;;;19.00;99.90;;;;;;5070881;28;20171;-56
2022/09/04 05:53:05;;;;;;;13.30;2.83;;;19.00;99.90;;;;;;5070956;28;20243;-56
2022/09/04 05:55:56;;;;;;;17.20;3.45;;;19.00;99.90;;;;;;5070820;28;20590;-57
2022/09/04 05:58:34;;;;;;;14.13;3.35;;;19.10;99.90;;;;;;5070778;28;20160;-57
2022/09/04 06:01:22;;;;;;;17.67;3.17;;;19.10;99.90;;;;;;5070731;28;20279;-56
2022/09/04 06:03:56;;;;;;;14.90;2.95;;;19.10;99.90;;;;;;5070783;28;20210;-56
2022/09/04 06:06:22;;;;;;;11.27;2.40;;;19.20;99.90;;;;;;5070817;28;20214;-57
2022/09/04 06:09:08;;;;;;;16.80;3.03;;;19.10;99.90;;;;;;5070549;28;20643;-57
2022/09/04 06:11:50;;;;;;;19.15;3.33;;;19.10;99.90;;;;;;5070608;28;20160;-57
2022/09/04 06:14:40;;;;;;;10.00;2.40;;;19.20;99.90;;;;;;5070432;28;20258;-56
2022/09/04 06:17:31;;;;;;;20.80;3.15;;;19.10;99.90;;;;;;5071584;28;20169;-57
2022/09/04 06:20:14;;;;;;;14.20;2.60;;;19.10;99.90;;;;;;5074610;28;20177;-57
2022/09/04 06:22:49;;;;;;;11.68;3.08;;;19.00;99.90;;;;;;5074619;28;20175;-57
2022/09/04 06:25:20;;;;;;;11.90;2.85;;;19.00;99.90;;;;;;5074430;28;20191;-57
2022/09/04 06:28:28;;;;;;;17.27;3.30;;;19.00;99.90;;;;;;5074423;28;20259;-55
2022/09/04 06:31:17;;;;;;;19.20;3.10;;;19.00;99.90;;;;;;5065990;28;20224;-56
2022/09/04 06:34:19;;;;;;;19.23;3.58;;;19.00;99.90;;;;;;5074201;28;20219;-57
2022/09/04 06:37:05;;;;;;;21.25;3.58;;;19.00;99.90;;;;;;5074250;28;20236;-57
2022/09/04 06:40:04;;;;;;;16.95;3.28;;;19.00;99.90;;;;;;5073981;28;20164;-56
2022/09/04 06:42:50;;;;;;;17.58;2.97;;;19.10;99.90;;;;;;5073563;28;20231;-56
2022/09/04 06:45:52;;;;;;;14.07;2.88;;;19.10;99.90;;;;;;5074236;28;20271;-57
2022/09/04 06:48:42;;;;;;;13.43;3.17;;;19.10;99.90;;;;;;5074140;28;20168;-57
2022/09/04 06:51:22;;;;;;;18.20;3.47;;;19.20;99.90;;;;;;5073922;28;20242;-56
2022/09/04 06:54:25;;;;;;;18.23;3.33;;;19.20;99.90;;;;;;5073959;28;20213;-57
2022/09/04 06:56:54;;;;;;;19.77;3.78;;;19.30;99.90;;;;;;5073916;28;20180;-57
2022/09/04 06:59:47;;;;;;;21.10;2.90;;;19.30;99.90;;;;;;5073746;28;20164;-56
2022/09/04 07:02:36;;;;;;;14.80;3.15;;;19.40;99.90;;;;;;5073690;28;20176;-56
2022/09/04 07:05:14;;;;;;;15.02;3.38;;;19.30;99.90;;;;;;5073753;28;20183;-57
2022/09/04 07:08:02;;;;;;;18.33;3.50;;;19.40;99.90;;;;;;5073883;28;20168;-56
2022/09/04 07:10:35;;;;;;;18.60;3.15;;;19.40;99.90;;;;;;5073805;28;20204;-57
2022/09/04 07:13:27;;;;;;;13.13;3.13;;;19.40;99.90;;;;;;5073518;28;20326;-57
2022/09/04 07:16:41;;;;;;;16.20;2.92;;;19.50;99.90;;;;;;5073493;28;20173;-57
2022/09/04 07:19:20;;;;;;;22.27;3.55;;;19.50;99.90;;;;;;5018774;28;20182;-56
2022/09/04 07:21:52;;;;;;;18.95;3.28;;;19.50;99.90;;;;;;5073455;28;20172;-57
2022/09/04 07:24:29;;;;;;;18.70;3.05;;;19.60;99.90;;;;;;5073307;28;20172;-57
2022/09/04 07:27:05;;;;;;;15.73;3.45;;;19.60;99.90;;;;;;5073302;28;20168;-57
2022/09/04 07:29:59;;;;;;;21.23;3.92;;;19.60;99.90;;;;;;5072386;28;20180;-57
2022/09/04 07:32:41;;;;;;;14.43;3.15;;;19.60;99.90;;;;;;5073169;28;20208;-57
2022/09/04 07:35:22;;;;;;;21.50;3.20;;;19.70;99.90;;;;;;5073236;28;20218;-57
2022/09/04 07:37:59;;;;;;;20.20;3.60;;;19.70;99.90;;;;;;5073304;28;20178;-57
2022/09/04 07:40:30;;;;;;;14.30;3.35;;;19.70;99.90;;;;;;5073187;28;20742;-58
2022/09/04 07:43:04;;;;;;;21.35;3.55;;;19.70;99.90;;;;;;5073001;28;20705;-57
2022/09/04 07:45:50;;;;;;;19.73;3.80;;;19.60;99.90;;;;;;5073274;28;20164;-59
2022/09/04 07:48:45;;;;;;;20.17;3.10;;;19.60;99.90;;;;;;5072919;28;20242;-57
2022/09/04 07:51:15;;;;;;;18.40;3.25;;;19.70;99.90;;;;;;5072978;28;20169;-56
2022/09/04 07:54:17;;;;;;;19.35;2.78;;;19.80;99.90;;;;;;5072729;28;20271;-56
2022/09/04 07:57:03;;;;;;;19.02;2.97;;;19.80;99.90;;;;;;5072657;28;20222;-57
2022/09/04 07:59:38;;;;;;;14.98;3.22;;;19.80;99.90;;;;;;5072727;28;20176;-56
2022/09/04 08:02:18;;;;;;;29.88;3.83;;;19.80;99.90;;;;;;5072906;28;20222;-57
2022/09/04 08:04:50;;;;;;;18.27;3.35;;;19.80;99.90;;;;;;5072698;28;20181;-57
2022/09/04 08:07:50;;;;;;;18.00;3.35;;;19.90;99.90;;;;;;5072540;28;20215;-57
2022/09/04 08:10:40;;;;;;;18.65;3.05;;;19.90;99.90;;;;;;5052833;28;20173;-57
2022/09/04 08:13:26;;;;;;;18.55;3.88;;;20.00;99.90;;;;;;5072361;28;20457;-56
2022/09/04 08:16:10;;;;;;;17.48;3.50;;;20.00;99.90;;;;;;5072299;28;20165;-56
2022/09/04 08:18:49;;;;;;;17.38;3.40;;;20.10;99.90;;;;;;5072342;28;20180;-56
2022/09/04 08:21:28;;;;;;;14.70;2.83;;;20.10;99.90;;;;;;5072492;28;20249;-56
2022/09/04 08:24:21;;;;;;;14.90;3.20;;;20.20;99.90;;;;;;5072184;28;20643;-55
2022/09/04 08:27:02;;;;;;;19.77;3.45;;;20.10;99.90;;;;;;5072057;28;20671;-56
2022/09/04 08:29:40;;;;;;;13.68;3.08;;;20.10;99.90;;;;;;5072090;28;20172;-56
2022/09/04 08:32:15;;;;;;;21.83;3.65;;;20.00;99.90;;;;;;5071873;28;20196;-57
2022/09/04 08:34:49;;;;;;;13.13;3.22;;;20.10;99.90;;;;;;5071882;28;20191;-56
2022/09/04 08:37:40;;;;;;;27.23;3.33;;;20.00;99.90;;;;;;5071946;28;20517;-56
2022/09/04 08:40:30;;;;;;;18.92;3.20;;;20.10;99.90;;;;;;5071766;28;20239;-56
2022/09/04 08:43:33;;;;;;;18.95;3.20;;;20.20;99.90;;;;;;5071891;28;20165;-57
2022/09/04 08:45:59;;;;;;;19.40;3.33;;;20.50;99.90;;;;;;5071709;28;20172;-56
2022/09/04 08:48:53;;;;;;;20.25;3.20;;;21.40;99.90;;;;;;5071779;28;20262;-56
2022/09/04 08:51:50;;;;;;;19.75;3.22;;;22.10;99.90;;;;;;5071681;28;20180;-55
2022/09/04 08:54:38;;;;;;;11.98;2.75;;;22.30;99.90;;;;;;5071446;28;20224;-55
2022/09/04 08:57:25;;;;;;;20.35;2.83;;;21.80;99.90;;;;;;5071257;28;20168;-56
2022/09/04 09:00:14;;;;;;;16.02;2.75;;;21.50;99.90;;;;;;5071415;28;20243;-56
2022/09/04 09:02:48;;;;;;;7.65;2.40;;;22.00;99.90;;;;;;5071336;28;20186;-57
2022/09/04 09:05:52;;;;;;;15.32;2.88;;;21.90;99.90;;;;;;5071385;28;20160;-56
2022/09/04 09:08:20;;;;;;;13.13;2.95;;;21.40;99.90;;;;;;5071178;28;20725;-56
2022/09/04 09:10:49;;;;;;;20.20;3.03;;;21.10;99.90;;;;;;5071083;28;20208;-56
2022/09/04 09:13:29;;;;;;;16.70;2.90;;;21.00;99.90;;;;;;5070990;28;20207;-56
2022/09/04 09:16:29;;;;;;;16.80;3.15;;;21.00;99.90;;;;;;5071224;28;20176;-56
2022/09/04 09:19:17;;;;;;;15.13;3.05;;;21.30;99.90;;;;;;5060404;28;20284;-56
2022/09/04 09:21:44;;;;;;;12.00;2.88;;;21.30;99.90;;;;;;5070971;28;20176;-57
2022/09/04 09:24:52;;;;;;;16.85;2.90;;;21.40;99.90;;;;;;5071110;28;20176;-57
2022/09/04 09:27:26;;;;;;;19.50;3.25;;;21.20;99.90;;;;;;5071005;28;20211;-56
2022/09/04 09:30:02;;;;;;;17.67;3.42;;;21.00;99.90;;;;;;5071187;28;20540;-57
2022/09/04 09:32:49;;;;;;;13.90;2.60;;;20.90;99.90;;;;;;5070637;28;20200;-57
2022/09/04 09:35:33;;;;;;;15.75;2.20;;;20.90;99.90;;;;;;5070827;28;20227;-55
2022/09/04 09:38:14;;;;;;;13.27;2.00;;;20.90;99.90;;;;;;5071167;28;20168;-55
2022/09/04 09:41:30;;;;;;;7.93;1.70;;;21.00;99.90;;;;;;5070602;28;20741;-56
2022/09/04 09:44:16;;;;;;;9.82;2.05;;;20.90;99.90;;;;;;5008919;28;20649;-58
2022/09/04 09:47:01;;;;;;;7.60;1.80;;;21.00;99.90;;;;;;5066518;28;20216;-56
2022/09/04 09:49:54;;;;;;;7.63;2.10;;;20.90;99.90;;;;;;5070801;28;20172;-57
2022/09/04 09:52:27;;;;;;;11.85;2.53;;;20.70;99.90;;;;;;5070275;28;20167;-55
2022/09/04 09:55:27;;;;;;;13.70;2.70;;;20.60;99.90;;;;;;5070451;28;20251;-56
2022/09/04 09:58:14;;;;;;;15.48;3.60;;;20.50;99.90;;;;;;5070483;28;20168;-56
2022/09/04 10:01:16;;;;;;;10.93;2.45;;;20.60;99.90;;;;;;5070703;28;20189;-57
2022/09/04 10:04:05;;;;;;;11.30;2.65;;;20.70;99.90;;;;;;5070380;28;20660;-56
2022/09/04 10:06:49;;;;;;;11.77;2.50;;;20.60;99.90;;;;;;5069023;28;20230;-56
2022/09/04 10:09:33;;;;;;;10.95;2.33;;;20.50;99.90;;;;;;5070503;28;20179;-57
2022/09/04 10:12:11;;;;;;;13.43;2.15;;;20.40;99.90;;;;;;5070353;28;20176;-56
2022/09/04 10:14:58;;;;;;;9.23;2.45;;;20.40;99.90;;;;;;5070422;28;20196;-56
2022/09/04 10:17:42;;;;;;;9.07;2.38;;;20.30;99.90;;;;;;5070717;28;20193;-56
2022/09/04 10:20:29;;;;;;;10.65;2.72;;;20.20;99.90;;;;;;5070516;28;20308;-55
2022/09/04 10:23:25;;;;;;;11.85;2.75;;;20.00;99.90;;;;;;5070315;28;20199;-55
2022/09/04 10:26:34;;;;;;;15.02;3.28;;;20.20;99.90;;;;;;5070528;28;20177;-56
2022/09/04 10:29:35;;;;;;;17.42;3.28;;;20.40;99.90;;;;;;5070272;28;20208;-57
2022/09/04 10:32:19;;;;;;;22.48;3.63;;;20.60;99.90;;;;;;5070330;28;20164;-56
2022/09/04 10:34:54;;;;;;;23.75;4.32;;;21.00;99.90;;;;;;5070642;28;20254;-57
2022/09/04 10:37:22;;;;;;;18.45;3.25;;;21.30;99.90;;;;;;5070331;28;20501;-57
2022/09/04 10:43:13;;;;;;;15.23;3.05;;;22.60;99.90;;;;;;5070636;28;20187;-57
2022/09/04 10:46:15;;;;;;;16.08;3.20;;;22.50;99.90;;;;;;5070234;28;20172;-57
2022/09/04 10:48:56;;;;;;;20.50;3.80;;;22.10;99.90;;;;;;5070409;28;20658;-58
2022/09/04 10:51:53;;;;;;;12.90;3.10;;;21.80;99.90;;;;;;5070218;28;20231;-57
2022/09/04 10:54:53;;;;;;;22.17;4.10;;;21.90;99.90;;;;;;5070612;28;20523;-57
2022/09/04 10:57:36;;;;;;;19.38;3.97;;;22.00;99.90;;;;;;5070666;28;20173;-57
2022/09/04 11:00:10;;;;;;;23.95;4.05;;;22.00;99.90;;;;;;5070247;28;20168;-57
2022/09/04 11:02:48;;;;;;;24.02;3.78;;;22.40;99.90;;;;;;5070418;28;20192;-57
2022/09/04 11:05:20;;;;;;;25.42;3.95;;;22.30;99.90;;;;;;5073654;28;20176;-57
2022/09/04 11:07:57;;;;;;;20.13;3.38;;;22.10;99.90;;;;;;5073873;28;20200;-57
2022/09/04 11:10:53;;;;;;;20.20;3.10;;;22.20;99.90;;;;;;5073718;28;20194;-57
2022/09/04 11:13:55;;;;;;;17.92;3.15;;;22.00;99.90;;;;;;5073489;28;20219;-56
2022/09/04 11:16:57;;;;;;;16.92;3.30;;;21.80;99.90;;;;;;5073775;28;20218;-57
2022/09/04 11:19:23;;;;;;;17.83;2.97;;;21.80;99.90;;;;;;5073512;28;20199;-56
2022/09/04 11:21:53;;;;;;;20.25;2.92;;;22.10;99.90;;;;;;5073382;28;20180;-56
2022/09/04 11:24:43;;;;;;;15.48;2.83;;;22.80;99.90;;;;;;5073365;28;20189;-56
2022/09/04 11:27:48;;;;;;;12.98;3.05;;;23.40;99.90;;;;;;5073393;28;20176;-56
2022/09/04 11:30:30;;;;;;;16.35;2.78;;;24.30;99.90;;;;;;5073489;28;20567;-56
2022/09/04 11:33:05;;;;;;;15.10;3.13;;;23.50;99.90;;;;;;5073084;28;20203;-56
2022/09/04 11:35:52;;;;;;;20.27;3.22;;;22.90;99.90;;;;;;5073219;28;20180;-57
2022/09/04 11:38:59;;;;;;;15.88;2.72;;;22.10;99.90;;;;;;5072999;28;20288;-56
2022/09/04 11:41:43;;;;;;;15.75;3.35;;;21.70;99.90;;;;;;5043132;28;20242;-56
2022/09/04 11:44:39;;;;;;;17.00;2.92;;;21.60;99.90;;;;;;5072990;28;20741;-56
2022/09/04 11:47:46;;;;;;;17.42;3.17;;;21.80;99.90;;;;;;5073053;28;20705;-55
2022/09/04 11:50:30;;;;;;;20.63;3.42;;;22.30;99.90;;;;;;5072873;28;20172;-57
2022/09/04 11:53:11;;;;;;;16.77;3.05;;;22.80;99.90;;;;;;5072807;28;20212;-57
2022/09/04 11:55:56;;;;;;;19.13;3.25;;;22.70;99.90;;;;;;5072956;28;20172;-57
2022/09/04 11:58:52;;;;;;;19.98;3.88;;;22.30;99.90;;;;;;5072669;28;20614;-57
2022/09/04 12:01:29;;;;;;;20.52;4.25;;;22.30;99.90;;;;;;5072529;28;20209;-57
2022/09/04 12:04:07;;;;;;;21.92;3.35;;;22.40;99.90;;;;;;5072634;28;20192;-57
2022/09/04 12:06:45;;;;;;;17.17;3.65;;;22.30;99.90;;;;;;5072633;28;20173;-57
2022/09/04 12:09:40;;;;;;;19.98;4.22;;;22.30;99.90;;;;;;5072462;28;20651;-57
2022/09/04 12:12:31;;;;;;;12.10;2.90;;;22.50;99.90;;;;;;5072600;28;20175;-58
2022/09/04 12:15:22;;;;;;;19.35;3.45;;;22.80;99.90;;;;;;5072010;28;20188;-56
2022/09/04 12:18:07;;;;;;;13.93;2.80;;;22.80;99.90;;;;;;5072240;28;20172;-58
2022/09/04 12:20:44;;;;;;;13.05;3.53;;;22.80;99.90;;;;;;5072423;28;20252;-56
2022/09/04 12:23:30;;;;;;;15.35;2.42;;;22.60;99.90;;;;;;5072287;28;20535;-57
2022/09/04 12:26:00;;;;;;;23.30;3.25;;;22.40;99.90;;;;;;5072147;28;20203;-56
2022/09/04 12:29:04;;;;;;;16.92;2.67;;;22.30;99.90;;;;;;5072165;28;20192;-57
2022/09/04 12:31:50;;;;;;;14.35;2.97;;;22.20;99.90;;;;;;5072139;28;20218;-57
2022/09/04 12:34:28;;;;;;;15.63;2.75;;;22.20;99.90;;;;;;5071817;28;20259;-57
2022/09/04 12:37:18;;;;;;;15.07;2.75;;;22.20;99.90;;;;;;5072187;28;20195;-57
2022/09/04 12:39:56;;;;;;;21.05;3.38;;;22.20;99.90;;;;;;5071796;28;20635;-57
2022/09/04 12:42:40;;;;;;;17.13;3.17;;;22.30;99.90;;;;;;5071909;28;20179;-57
2022/09/04 12:45:51;;;;;;;18.33;2.85;;;22.10;99.90;;;;;;5071810;28;20160;-56
2022/09/04 12:48:34;;;;;;;23.02;3.95;;;22.10;99.90;;;;;;5009999;28;20265;-56
2022/09/04 12:51:10;;;;;;;11.25;2.67;;;22.70;99.90;;;;;;5009911;28;20189;-56
2022/09/04 12:53:59;;;;;;;11.73;2.55;;;22.90;99.90;;;;;;5053438;28;20229;-57
2022/09/04 12:56:42;;;;;;;17.80;3.03;;;22.90;99.90;;;;;;5071676;28;20161;-56
2022/09/04 12:59:08;;;;;;;14.57;2.83;;;23.00;99.90;;;;;;5071591;28;20277;-57
2022/09/04 13:01:55;;;;;;;16.27;3.72;;;22.60;99.90;;;;;;5071439;28;20164;-56
2022/09/04 13:04:41;;;;;;;17.17;3.03;;;22.50;99.90;;;;;;5071593;28;20169;-56
2022/09/04 13:07:30;;;;;;;19.15;3.60;;;22.60;99.90;;;;;;5071374;28;20208;-56
2022/09/04 13:10:07;;;;;;;15.68;3.42;;;22.40;99.90;;;;;;5071319;28;20195;-56
2022/09/04 13:13:01;;;;;;;21.50;3.13;;;22.20;99.90;;;;;;5071310;28;20635;-56
2022/09/04 13:15:40;;;;;;;18.92;3.13;;;21.90;99.90;;;;;;5071355;28;20688;-58
2022/09/04 13:18:33;;;;;;;15.30;3.55;;;21.90;99.90;;;;;;5071260;28;20169;-56
2022/09/04 13:21:11;;;;;;;15.23;2.67;;;21.80;99.90;;;;;;5071320;28;20199;-56
2022/09/04 13:23:49;;;;;;;20.05;3.10;;;21.70;99.90;;;;;;5071284;28;20244;-57
2022/09/04 13:26:14;;;;;;;21.52;3.40;;;21.70;99.90;;;;;;5070489;28;20176;-57
2022/09/04 13:28:55;;;;;;;23.27;3.60;;;22.00;99.90;;;;;;5070898;28;20508;-56
2022/09/04 13:31:42;;;;;;;11.13;2.95;;;22.10;99.90;;;;;;5071042;28;20590;-58
2022/09/04 13:34:39;;;;;;;17.27;3.53;;;22.40;99.90;;;;;;5069652;28;20215;-56
2022/09/04 13:37:25;;;;;;;22.55;3.53;;;22.70;99.90;;;;;;5070950;28;20160;-57
2022/09/04 13:40:04;;;;;;;15.95;3.03;;;22.90;99.90;;;;;;5070648;28;20307;-56
2022/09/04 13:42:57;;;;;;;12.27;2.72;;;22.80;99.90;;;;;;5071000;28;20318;-56
2022/09/04 13:45:45;;;;;;;14.27;3.17;;;22.80;99.90;;;;;;5070896;28;20164;-56
2022/09/04 13:48:36;;;;;;;12.80;3.20;;;23.10;99.90;;;;;;5070435;28;20220;-56
2022/09/04 13:51:31;;;;;;;15.23;2.70;;;22.80;99.90;;;;;;5060903;28;20189;-56
2022/09/04 13:54:03;;;;;;;18.77;3.22;;;22.70;99.90;;;;;;5067572;28;20220;-56
2022/09/04 13:56:38;;;;;;;13.82;3.00;;;22.70;99.90;;;;;;5070693;28;20256;-55
2022/09/04 13:59:08;;;;;;;10.48;2.78;;;22.60;99.90;;;;;;5070822;28;20635;-57
2022/09/04 14:01:44;;;;;;;19.35;2.70;;;22.80;99.90;;;;;;5070745;28;20165;-56
2022/09/04 14:04:18;;;;;;;14.93;2.63;;;23.10;99.90;;;;;;5070667;28;20180;-56
2022/09/04 14:06:44;;;;;;;9.85;2.63;;;22.90;99.90;;;;;;5070907;28;20172;-57
2022/09/04 14:09:10;;;;;;;12.63;2.58;;;23.00;99.90;;;;;;5070745;28;20191;-56
2022/09/04 14:12:04;;;;;;;12.13;2.90;;;23.20;99.90;;;;;;5070615;28;20573;-57